Latest Weather Observations for Kuitpo

IDS60801

Issued at 10:41 am CST Tuesday 14 July 2020 (issued every 10 minutes, with the page automatically refreshed every 10 minutes)

About weather observations | Map of weather stations | Latest weather observations for SA | Other Formats
Station Details ID: 023887 Name: KUITPO FOREST RESERVE Lat: -35.17 Lon: 138.68 Height: 365.0 m
Data from the previous 72 hours. | See also: Recent months at Kuitpo
Date/Time
CST
Temp
°C
App
Temp
°C
Dew
Point
°C
Rel
Hum
%
Delta-T
°C
Wind Press
QNH
hPa
Press
MSL
hPa
Rain since
9am
mm
Dir  Spd
km/h
Gust
km/h
Spd
kts
Gust
kts
14/10:30am 11.0 9.4 8.1 82 1.4 ENE 6 11 3 6 1027.2 1027.6 0.0
14/10:00am 10.4 8.8 8.2 86 1.1 ENE 6 9 3 5 1027.5 1027.9 0.0
14/09:30am 9.8 8.0 8.1 89 0.8 E 7 15 4 8 1027.3 1027.7 0.0
14/09:00am 8.6 5.5 7.2 91 0.7 ENE 13 17 7 9 1026.9 1027.3 0.4
14/08:30am 8.0 4.9 7.2 95 0.4 ENE 13 19 7 10 1026.7 1027.1 0.4
14/08:00am 7.5 4.4 7.1 97 0.2 ENE 13 19 7 10 1026.5 1026.9 0.4
14/07:30am 7.4 3.2 7.3 99 0.0 ENE 19 20 10 11 1026.5 1026.9 0.4
14/07:00am 7.3 3.4 7.3 100 0.0 ENE 17 22 9 12 1026.6 1027.0 0.4
14/06:30am 7.1 3.2 7.1 100 0.0 E 17 22 9 12 1026.4 1026.8 0.4
14/06:00am 7.1 3.6 7.1 100 0.0 E 15 19 8 10 1026.4 1026.8 0.4
14/05:30am 6.9 3.3 6.9 100 0.0 E 15 17 8 9 1026.2 1026.6 0.2
14/05:00am 6.9 3.3 6.9 100 0.0 E 15 17 8 9 1026.1 1026.5 0.2
14/04:30am 6.7 3.5 6.7 100 0.0 E 13 15 7 8 1026.3 1026.7 0.2
14/04:00am 6.5 3.2 6.5 100 0.0 E 13 15 7 8 1026.2 1026.6 0.2
14/03:30am 6.9 3.7 6.9 100 0.0 E 13 17 7 9 1026.2 1026.6 0.2
14/03:00am 6.5 3.6 6.5 100 0.0 ENE 11 13 6 7 1026.3 1026.7 0.2
14/02:30am 7.1 4.3 7.1 100 0.0 ENE 11 15 6 8 1026.4 1026.8 0.2
14/02:00am 7.4 5.1 7.4 100 0.0 E 9 13 5 7 1026.6 1027.0 0.2
14/01:30am 7.9 4.6 7.9 100 0.0 E 15 20 8 11 1026.5 1026.9 0.2
14/01:00am 8.2 4.6 8.2 100 0.0 E 17 24 9 13 1026.4 1026.8 0.2
14/12:30am 8.5 5.3 8.5 100 0.0 E 15 24 8 13 1026.6 1027.0 0.2
14/12:00am 8.5 5.7 8.5 100 0.0 ESE 13 20 7 11 1026.8 1027.2 0.2
 
Date/Time
CST
Temp
°C
App
Temp
°C
Dew
Point
°C
Rel
Hum
%
Delta-T
°C
Wind Press
QNH
hPa
Press
MSL
hPa
Rain since
9am
mm
Dir  Spd
km/h
Gust
km/h
Spd
kts
Gust
kts
13/11:30pm 8.4 5.6 8.4 100 0.0 ESE 13 20 7 11 1026.8 1027.2 0.2
13/11:00pm 8.2 5.7 8.2 100 0.0 ESE 11 15 6 8 1026.9 1027.3 0.2
13/10:30pm 8.3 5.1 8.3 100 0.0 ESE 15 22 8 12 1026.9 1027.3 0.2
13/10:00pm 8.3 5.1 8.3 100 0.0 ESE 15 20 8 11 1027.0 1027.4 0.2
13/09:30pm 8.1 4.8 8.1 100 0.0 ESE 15 20 8 11 1027.0 1027.4 0.2
13/09:00pm 8.0 5.1 8.0 100 0.0 ESE 13 17 7 9 1027.1 1027.5 0.0
13/08:30pm 8.2 5.3 8.1 99 0.0 ESE 13 20 7 11 1027.0 1027.4 0.0
13/08:00pm 8.2 4.9 8.1 99 0.0 ESE 15 20 8 11 1026.8 1027.2 0.0
13/07:30pm 8.1 4.8 8.0 99 0.0 SE 15 20 8 11 1026.7 1027.1 0.0
13/07:00pm 8.0 5.8 7.7 98 0.1 SE 9 13 5 7 1026.7 1027.1 0.0
13/06:30pm 8.5 5.9 7.9 96 0.3 SE 11 15 6 8 1026.5 1026.9 0.0
13/06:00pm 9.0 7.2 7.8 92 0.6 SSE 7 9 4 5 1026.3 1026.7 0.0
13/05:30pm 9.5 7.6 7.6 88 0.9 SSE 7 13 4 7 1025.9 1026.3 0.0
13/05:00pm 10.6 9.4 9.4 92 0.6 SW 6 11 3 6 1025.7 1026.0 0.0
13/04:30pm 11.8 10.6 9.4 85 1.2 SSW 6 9 3 5 1025.4 1025.7 0.0
13/04:00pm 12.5 10.6 6.5 67 2.9 S 6 11 3 6 1025.3 1025.6 0.0
13/03:30pm 13.0 10.7 5.9 62 3.4 S 7 11 4 6 1024.9 1025.2 0.0
13/03:00pm 12.7 10.8 6.5 66 3.0 SSE 6 11 3 6 1024.6 1025.0 0.0
13/02:30pm 12.8 11.2 8.9 77 2.0 SW 7 13 4 7 1024.9 1025.2 0.0
13/02:00pm 13.2 10.6 6.1 62 3.4 S 9 15 5 8 1025.0 1025.3 0.0
13/01:30pm 13.0 10.5 6.4 64 3.2 S 9 17 5 9 1025.2 1025.5 0.0
13/01:00pm 12.9 10.6 7.6 70 2.6 S 9 15 5 8 1025.7 1026.0 0.0
13/12:30pm 12.5 10.4 6.5 67 2.9 ESE 7 11 4 6 1025.9 1026.3 0.0
13/12:00pm 11.9 9.1 6.8 71 2.5 E 11 17 6 9 1026.2 1026.6 0.0
13/11:30am 11.5 8.9 7.6 77 1.9 ESE 11 13 6 7 1026.7 1027.1 0.0
13/11:00am 11.1 8.0 7.4 78 1.8 ESE 13 20 7 11 1026.9 1027.3 0.0
13/10:30am 10.8 7.8 7.9 82 1.4 E 13 19 7 10 1026.8 1027.2 0.0
13/10:00am 10.3 7.5 8.6 89 0.9 ESE 13 17 7 9 1026.7 1027.1 0.0
13/09:30am 9.3 6.7 9.3 100 0.0 ESE 13 17 7 9 1026.5 1026.9 0.0
13/09:00am 8.4 5.9 8.4 100 0.0 ESE 11 17 6 9 1026.4 1026.8 0.8
13/08:30am 7.7 4.7 7.7 100 0.0 ESE 13 17 7 9 1026.0 1026.4 0.8
13/08:00am 7.3 3.4 7.3 100 0.0 ESE 17 20 9 11 1025.8 1026.2 0.8
13/07:30am 7.3 3.8 7.3 100 0.0 ESE 15 20 8 11 1025.7 1026.0 0.8
13/07:00am 7.3 3.8 7.3 100 0.0 E 15 19 8 10 1025.3 1025.6 0.8
13/06:30am 7.8 5.6 7.8 100 0.0 ESE 9 13 5 7 1025.1 1025.4 0.8
13/06:00am 7.8 6.0 7.8 100 0.0 ESE 7 9 4 5 1025.0 1025.3 0.8
13/05:30am 8.0 4.3 8.0 100 0.0 ESE 17 22 9 12 1024.5 1024.9 0.8
13/05:00am 8.2 4.9 8.2 100 0.0 ESE 15 20 8 11 1024.3 1024.7 0.8
13/04:30am 8.3 5.4 8.3 100 0.0 ESE 13 19 7 10 1024.2 1024.6 0.8
13/04:00am 8.4 4.8 8.4 100 0.0 ESE 17 22 9 12 1024.1 1024.5 0.8
13/03:30am 8.5 5.3 8.5 100 0.0 SE 15 20 8 11 1024.2 1024.6 0.6
13/03:00am 8.7 5.9 8.6 99 0.0 ESE 13 19 7 10 1024.2 1024.6 0.6
13/02:30am 8.9 6.5 8.6 98 0.1 ESE 11 17 6 9 1024.1 1024.5 0.6
13/02:00am 9.0 5.5 8.6 97 0.2 SE 17 24 9 13 1023.9 1024.3 0.6
13/01:30am 9.2 6.4 8.6 96 0.3 SE 13 22 7 12 1024.0 1024.4 0.6
13/01:00am 9.3 6.1 8.5 95 0.4 SE 15 26 8 14 1024.0 1024.4 0.6
13/12:30am 9.3 6.9 8.8 97 0.2 SE 11 19 6 10 1024.1 1024.5 0.6
13/12:00am 9.5 7.2 9.0 97 0.2 SE 11 15 6 8 1024.1 1024.5 0.6
 
Date/Time
CST
Temp
°C
App
Temp
°C
Dew
Point
°C
Rel
Hum
%
Delta-T
°C
Wind Press
QNH
hPa
Press
MSL
hPa
Rain since
9am
mm
Dir  Spd
km/h
Gust
km/h
Spd
kts
Gust
kts
12/11:30pm 9.5 7.6 9.0 97 0.2 SE 9 13 5 7 1024.0 1024.4 0.6
12/11:00pm 9.6 7.3 9.1 97 0.3 SSE 11 19 6 10 1023.7 1024.1 0.6
12/10:30pm 9.5 7.2 9.0 97 0.2 SE 11 19 6 10 1023.7 1024.1 0.6
12/10:00pm 9.4 7.1 8.9 97 0.3 SE 11 19 6 10 1023.6 1024.0 0.6
12/09:30pm 9.7 7.0 9.1 96 0.3 SE 13 20 7 11 1023.5 1023.9 0.6
12/09:00pm 9.6 7.2 8.8 95 0.4 SSE 11 20 6 11 1023.5 1023.9 0.6
12/08:30pm 9.7 7.0 8.9 95 0.4 SSE 13 22 7 12 1023.4 1023.8 0.6
12/08:00pm 9.6 6.9 8.8 95 0.4 SSE 13 20 7 11 1023.1 1023.4 0.6
12/07:30pm 9.4 6.7 8.8 96 0.3 SSE 13 19 7 10 1022.7 1023.0 0.6
12/07:00pm 9.3 6.9 8.5 95 0.4 SSE 11 19 6 10 1022.4 1022.7 0.6
12/06:30pm 9.5 6.7 8.4 93 0.5 SSE 13 26 7 14 1022.0 1022.3 0.6
12/06:00pm 9.3 6.5 8.5 95 0.4 SSE 13 20 7 11 1021.5 1021.9 0.6
12/05:30pm 9.2 6.3 8.1 93 0.5 SSE 13 20 7 11 1021.1 1021.5 0.6
12/05:00pm 9.8 6.9 8.2 90 0.8 SSE 13 20 7 11 1020.8 1021.1 0.6
12/04:30pm 10.1 6.8 7.9 86 1.1 SSE 15 24 8 13 1020.5 1020.8 0.6
12/04:00pm 10.9 7.2 7.8 81 1.5 SE 17 24 9 13 1020.3 1020.6 0.6
12/03:30pm 11.2 8.2 7.9 80 1.6 SSE 13 28 7 15 1020.1 1020.4 0.6
12/03:00pm 11.8 8.2 8.5 80 1.7 SE 17 32 9 17 1019.8 1020.1 0.6
12/02:30pm 11.7 8.3 7.8 77 1.9 SE 15 24 8 13 1019.7 1020.0 0.6
12/02:00pm 11.2 7.5 8.1 81 1.5 SE 17 30 9 16 1019.7 1020.0 0.6
12/01:30pm 11.5 7.4 7.8 78 1.8 SE 19 32 10 17 1019.6 1019.9 0.6
12/01:00pm 11.1 7.4 7.8 80 1.6 SSE 17 30 9 16 1019.6 1019.9 0.6
12/12:30pm 10.6 7.2 7.8 83 1.4 SSE 15 28 8 15 1019.7 1020.0 0.6
12/12:00pm 11.0 7.4 8.4 84 1.3 SSE 17 30 9 16 1019.7 1020.0 0.6
12/11:30am 9.8 6.7 8.7 93 0.5 SE 15 30 8 16 1019.8 1020.1 0.6
12/11:00am 9.6 6.9 8.8 95 0.4 SSE 13 22 7 12 1019.8 1020.1 0.6
12/10:30am 10.0 8.0 10.0 100 0.0 SE 11 22 6 12 1019.8 1020.1 0.6
12/10:00am 9.3 5.9 9.3 100 0.0 SSE 17 32 9 17 1019.4 1019.7 0.6
12/09:30am 8.6 6.2 8.6 100 0.0 SSE 11 20 6 11 1019.1 1019.4 0.4
12/09:00am 8.2 4.9 8.2 100 0.0 S 15 22 8 12 1018.8 1019.2 7.6
12/08:30am 7.9 4.6 7.9 100 0.0 S 15 24 8 13 1018.3 1018.6 7.6
12/08:00am 7.6 4.6 7.6 100 0.0 S 13 20 7 11 1018.0 1018.3 7.6
12/07:30am 7.8 4.8 7.8 100 0.0 S 13 20 7 11 1017.6 1017.9 7.6
12/07:00am 7.7 4.7 7.7 100 0.0 S 13 20 7 11 1017.2 1017.5 7.6
12/06:30am 8.0 5.1 8.0 100 0.0 S 13 22 7 12 1016.8 1017.1 7.6
12/06:00am 7.8 4.8 7.8 100 0.0 S 13 24 7 13 1016.5 1016.8 7.4
12/05:30am 7.7 5.1 7.7 100 0.0 S 11 17 6 9 1016.3 1016.5 6.6
12/05:00am 7.3 4.6 7.3 100 0.0 SW 11 17 6 9 1016.0 1016.3 4.6
12/04:30am 7.1 4.0 7.1 100 0.0 SSW 13 22 7 12 1016.0 1016.3 3.8
12/04:00am 7.0 3.8 7.0 100 0.0 SW 13 20 7 11 1016.0 1016.3 3.8
12/03:30am 7.0 4.2 7.0 100 0.0 SW 11 17 6 9 1016.2 1016.4 3.4
12/03:00am 7.0 3.8 7.0 100 0.0 SW 13 20 7 11 1016.2 1016.4 3.4
12/02:30am 7.0 3.5 7.0 100 0.0 SW 15 24 8 13 1016.0 1016.3 3.2
12/02:00am 6.9 3.7 6.9 100 0.0 SW 13 19 7 10 1016.0 1016.3 3.2
12/01:30am 6.5 3.6 6.5 100 0.0 WSW 11 13 6 7 1015.9 1016.2 3.2
12/01:00am 6.7 4.2 6.7 100 0.0 WSW 9 11 5 6 1016.0 1016.3 3.2
12/12:30am 6.9 4.1 6.9 100 0.0 SSW 11 13 6 7 1016.0 1016.3 3.2
12/12:00am 6.5 4.4 6.5 100 0.0 SW 7 9 4 5 1016.0 1016.3 3.2
 
Date/Time
CST
Temp
°C
App
Temp
°C
Dew
Point
°C
Rel
Hum
%
Delta-T
°C
Wind Press
QNH
hPa
Press
MSL
hPa
Rain since
9am
mm
Dir  Spd
km/h
Gust
km/h
Spd
kts
Gust
kts
11/11:30pm 6.5 4.6 6.5 100 0.0 SSW 6 7 3 4 1016.2 1016.4 3.0
11/11:00pm 6.7 4.2 6.7 100 0.0 SW 9 17 5 9 1016.3 1016.5 3.0
11/10:30pm 6.9 4.9 6.9 100 0.0 SW 7 11 4 6 1016.5 1016.8 2.2
11/10:00pm 6.8 4.9 6.8 100 0.0 SSW 6 9 3 5 1016.3 1016.5 2.2
11/09:30pm 7.0 4.6 7.0 100 0.0 WSW 9 13 5 7 1016.2 1016.4 2.2
11/09:00pm 6.8 3.9 6.7 99 0.0 WSW 11 15 6 8 1016.2 1016.4 2.2
11/08:30pm 6.1 3.4 5.8 98 0.1 W 9 11 5 6 1015.9 1016.2 2.0
11/08:00pm 6.3 3.7 6.0 98 0.1 W 9 11 5 6 1015.8 1016.1 2.0
11/07:30pm 5.9 3.6 5.6 98 0.1 W 7 9 4 5 1015.6 1015.9 2.0
11/07:00pm 6.1 3.8 5.7 97 0.2 W 7 11 4 6 1015.5 1015.8 2.0
11/06:30pm 6.2 3.1 5.6 96 0.3 WSW 11 15 6 8 1015.2 1015.5 2.0
11/06:00pm 6.4 3.7 5.7 95 0.3 WSW 9 13 5 7 1015.0 1015.3 2.0
11/05:30pm 6.7 4.0 5.5 92 0.5 WSW 9 13 5 7 1014.7 1015.0 2.0
11/05:00pm 7.8 5.4 5.4 85 1.1 WSW 7 11 4 6 1014.6 1014.9 2.0
11/04:30pm 8.8 6.1 5.5 80 1.5 WSW 9 15 5 8 1014.4 1014.7 2.0
11/04:00pm 9.2 6.7 5.0 75 1.9 WSW 7 11 4 6 1014.2 1014.5 2.0
11/03:30pm 9.3 6.6 5.5 77 1.8 W 9 13 5 7 1014.0 1014.2 2.0
11/03:00pm 9.1 6.6 6.5 84 1.2 WNW 9 13 5 7 1013.9 1014.1 2.0
11/02:30pm 9.2 7.2 7.2 87 1.0 WNW 7 11 4 6 1013.9 1014.1 2.0
11/02:00pm 8.5 5.4 7.3 92 0.6 W 13 17 7 9 1014.0 1014.2 2.0
11/01:30pm 7.4 5.6 7.3 99 0.0 S 6 9 3 5 1014.2 1014.5 2.0
11/01:00pm 6.2 4.1 5.9 98 0.1 SSE 6 9 3 5 1014.5 1014.8 1.6
11/12:30pm 6.3 3.3 5.9 97 0.2 SSE 11 20 6 11 1014.7 1015.0 0.2
11/12:00pm 6.3 3.1 5.3 93 0.4 SSE 11 19 6 10 1015.0 1015.3 0.0
11/11:30am 8.5 5.6 6.5 87 0.9 NW 11 19 6 10 1015.2 1015.5 0.0
11/11:00am 8.7 6.3 6.8 88 0.9 NW 9 15 5 8 1015.4 1015.7 0.0

Other formats

Comma delimited format used in spreadsheet applications
http://www.bom.gov.au/fwo/IDS60801/IDS60801.94683.axf

JavaScript Object Notation format (JSON) in row-major order
http://www.bom.gov.au/fwo/IDS60801/IDS60801.94683.json

Data quality

Most of these data are generated automatically and are frequently updated. Quality checks on data are not normally performed. It is possible for incorrect values to appear. Refer to information at About Latest Weather Observations and please check the disclaimer before using these data.